Time;durP1;ratioP1;P1;durP2;ratioP2;P2;SDS_P1;SDS_P2;PMS_P1;PMS_P2;Temp;Humidity;BMP_temperature;BMP_pressure;BME280_temperature;BME280_humidity;BME280_pressure;Samples;Min_cycle;Max_cycle;Signal;HPM_P1;HPM_P2
2022/10/05 00:02:14;;;;;;;;;;;;;;;12.71;100.00;98616.97;5075308;28;19987;-73
2022/10/05 00:04:40;;;;;;;;;;;;;;;12.74;100.00;98613.75;5091876;28;19951;-74
2022/10/05 00:07:09;;;;;;;;;;;;;;;12.66;100.00;98612.38;5093481;28;19980;-74
2022/10/05 00:09:35;;;;;;;;;;;;;;;12.66;100.00;98617.72;5077669;28;19924;-74
2022/10/05 00:12:09;;;;;;;;;;;;;;;12.71;100.00;98603.56;5073844;28;19988;-74
2022/10/05 00:14:36;;;;;;;;;;;;;;;12.66;100.00;98600.84;5075760;28;19967;-74
2022/10/05 00:17:05;;;;;;;;;;;;;;;12.63;100.00;98602.16;5078103;28;19921;-74
2022/10/05 00:19:32;;;;;;;;;;;;;;;12.57;100.00;98599.72;5076915;28;20159;-74
2022/10/05 00:21:59;;;;;;;;;;;;;;;12.55;100.00;98599.97;5066943;28;19951;-74
2022/10/05 00:24:26;;;;;;;;;;;;;;;12.60;100.00;98596.50;5075080;28;19971;-74
2022/10/05 00:26:52;;;;;;;;;;;;;;;12.60;100.00;98591.97;5078071;28;19928;-74
2022/10/05 00:29:21;;;;;;;;;;;;;;;12.59;100.00;98587.69;5078451;28;19924;-74
2022/10/05 00:31:48;;;;;;;;;;;;;;;12.60;100.00;98585.78;5091114;28;19936;-74
2022/10/05 00:34:16;;;;;;;;;;;;;;;12.58;100.00;98586.06;5073286;28;19960;-73
2022/10/05 00:36:43;;;;;;;;;;;;;;;12.58;100.00;98586.06;5075830;28;19925;-74
2022/10/05 00:39:09;;;;;;;;;;;;;;;12.54;100.00;98589.50;5093978;28;19954;-74
2022/10/05 00:41:42;;;;;;;;;;;;;;;12.58;100.00;98591.44;5077373;28;19969;-74
2022/10/05 00:44:22;;;;;;;;;;;;;;;12.52;100.00;98587.09;5073240;28;20003;-73
2022/10/05 00:46:54;;;;;;;;;;;;;;;12.56;100.00;98585.53;5076640;28;19950;-74
2022/10/05 00:49:28;;;;;;;;;;;;;;;12.58;100.00;98582.56;5077954;28;19959;-73
2022/10/05 00:51:58;;;;;;;;;;;;;;;12.51;100.00;98580.13;5074669;28;19924;-73
2022/10/05 00:54:28;;;;;;;;;;;;;;;12.45;100.00;98578.47;5073806;28;19925;-74
2022/10/05 00:57:02;;;;;;;;;;;;;;;12.40;100.00;98575.78;5076796;28;19924;-74
2022/10/05 00:59:36;;;;;;;;;;;;;;;12.26;100.00;98585.31;5076090;28;19964;-74
2022/10/05 01:02:06;;;;;;;;;;;;;;;12.16;100.00;98580.69;5082362;28;20333;-73
2022/10/05 01:04:37;;;;;;;;;;;;;;;12.11;100.00;98567.28;5074589;28;19955;-74
2022/10/05 01:07:06;;;;;;;;;;;;;;;12.10;100.00;98567.53;5076261;28;19959;-74
2022/10/05 01:09:39;;;;;;;;;;;;;;;12.16;100.00;98567.28;5076317;28;19935;-74
2022/10/05 01:12:09;;;;;;;;;;;;;;;12.27;100.00;98557.47;5072926;28;19960;-74
2022/10/05 01:14:42;;;;;;;;;;;;;;;12.28;100.00;98561.78;5090030;28;19925;-74
2022/10/05 01:17:11;;;;;;;;;;;;;;;12.26;100.00;98563.88;5077277;28;19928;-74
2022/10/05 01:20:04;;;;;;;;;;;;;;;12.25;100.00;98563.09;5092099;28;19946;-74
2022/10/05 01:22:41;;;;;;;;;;;;;;;12.21;100.00;98562.00;5043903;28;19936;-74
2022/10/05 01:25:15;;;;;;;;;;;;;;;12.14;100.00;98557.91;5065658;28;19924;-74
2022/10/05 01:27:45;;;;;;;;;;;;;;;12.17;100.00;98557.41;5074670;28;19964;-74
2022/10/05 01:30:13;;;;;;;;;;;;;;;12.16;100.00;98569.19;5076672;28;20015;-73
2022/10/05 01:32:42;;;;;;;;;;;;;;;12.09;100.00;98563.25;5074823;28;19931;-74
2022/10/05 01:35:14;;;;;;;;;;;;;;;12.12;100.00;98563.53;5073427;28;19925;-73
2022/10/05 01:37:47;;;;;;;;;;;;;;;12.21;100.00;98562.00;5076826;28;19955;-73
2022/10/05 01:40:19;;;;;;;;;;;;;;;12.20;100.00;98562.25;5080017;28;19971;-73
2022/10/05 01:42:51;;;;;;;;;;;;;;;12.14;100.00;98563.25;5094375;28;19925;-74
2022/10/05 01:45:21;;;;;;;;;;;;;;;12.09;100.00;98563.25;5077168;28;19960;-74
2022/10/05 01:47:50;;;;;;;;;;;;;;;12.20;100.00;98560.38;5095584;28;19921;-74
2022/10/05 01:50:27;;;;;;;;;;;;;;;12.22;100.00;98560.94;5081473;28;19920;-74
2022/10/05 01:52:58;;;;;;;;;;;;;;;12.22;100.00;98566.31;5075292;28;19996;-74
2022/10/05 01:55:29;;;;;;;;;;;;;;;12.17;100.00;98560.88;5080268;28;19935;-74
2022/10/05 01:58:07;;;;;;;;;;;;;;;12.20;100.00;98562.25;5077154;28;19929;-74
2022/10/05 02:00:38;;;;;;;;;;;;;;;12.09;100.00;98553.34;5076780;28;19925;-74
2022/10/05 02:03:08;;;;;;;;;;;;;;;12.10;100.00;98562.19;5080317;28;19959;-74
2022/10/05 02:05:38;;;;;;;;;;;;;;;12.11;100.00;98555.75;5078888;28;19920;-74
2022/10/05 02:08:07;;;;;;;;;;;;;;;12.12;100.00;98547.47;5076722;28;20000;-74
2022/10/05 02:10:36;;;;;;;;;;;;;;;12.12;100.00;98552.00;5092610;28;19943;-74
2022/10/05 02:13:09;;;;;;;;;;;;;;;12.10;100.00;98548.81;5080229;28;19925;-74
2022/10/05 02:15:40;;;;;;;;;;;;;;;12.12;100.00;98546.66;5080359;28;19987;-74
2022/10/05 02:18:09;;;;;;;;;;;;;;;12.16;100.00;98550.44;5077712;28;19924;-74
2022/10/05 02:20:37;;;;;;;;;;;;;;;12.21;100.00;98540.56;5078035;28;19996;-74
2022/10/05 02:23:06;;;;;;;;;;;;;;;12.17;100.00;98536.78;5080262;28;19928;-74
2022/10/05 02:25:34;;;;;;;;;;;;;;;12.13;100.00;98535.69;5081985;28;19959;-74
2022/10/05 02:28:04;;;;;;;;;;;;;;;12.13;100.00;98542.94;5068606;28;19967;-74
2022/10/05 02:30:33;;;;;;;;;;;;;;;12.17;100.00;98549.38;5077299;28;19928;-74
2022/10/05 02:33:01;;;;;;;;;;;;;;;12.10;100.00;98544.22;5067579;28;19921;-74
2022/10/05 02:35:27;;;;;;;;;;;;;;;12.07;100.00;98546.63;5077040;28;19952;-74
2022/10/05 02:38:01;;;;;;;;;;;;;;;11.90;100.00;98544.09;5080039;28;19932;-74
2022/10/05 02:40:33;;;;;;;;;;;;;;;11.93;100.00;98542.75;5080269;28;19963;-74
2022/10/05 02:43:03;;;;;;;;;;;;;;;12.03;100.00;98562.41;5067537;28;19932;-74
2022/10/05 02:45:37;;;;;;;;;;;;;;;12.09;100.00;98557.88;5076087;28;19931;-74
2022/10/05 02:48:08;;;;;;;;;;;;;;;12.13;100.00;98550.97;5066368;28;19951;-74
2022/10/05 02:50:38;;;;;;;;;;;;;;;12.07;100.00;98550.09;5091823;28;19925;-74
2022/10/05 02:53:13;;;;;;;;;;;;;;;12.06;100.00;98555.72;5099613;28;19924;-74
2022/10/05 02:55:46;;;;;;;;;;;;;;;12.07;100.00;98563.47;5077252;28;19966;-74
2022/10/05 02:58:14;;;;;;;;;;;;;;;12.08;100.00;98553.59;5075819;28;20012;-74
2022/10/05 03:00:45;;;;;;;;;;;;;;;12.14;100.00;98549.88;5076954;28;20064;-74
2022/10/05 03:03:16;;;;;;;;;;;;;;;12.12;100.00;98543.97;5079689;28;19920;-75
2022/10/05 03:05:46;;;;;;;;;;;;;;;12.11;100.00;98550.41;5078816;28;19921;-74
2022/10/05 03:08:16;;;;;;;;;;;;;;;12.09;100.00;98553.34;5076080;28;19925;-74
2022/10/05 03:10:45;;;;;;;;;;;;;;;12.04;100.00;98545.25;5075711;28;19986;-74
2022/10/05 03:13:16;;;;;;;;;;;;;;;12.04;100.00;98545.25;5079132;28;19928;-74
2022/10/05 03:16:00;;;;;;;;;;;;;;;12.01;100.00;98545.00;5078117;28;19963;-74
2022/10/05 03:18:35;;;;;;;;;;;;;;;11.98;100.00;98545.47;5074477;28;20223;-74
2022/10/05 03:21:07;;;;;;;;;;;;;;;12.03;100.00;98553.56;5067720;28;19929;-74
2022/10/05 03:23:39;;;;;;;;;;;;;;;11.98;100.00;98548.16;5079340;28;19925;-74
2022/10/05 03:26:15;;;;;;;;;;;;;;;12.00;100.00;98546.03;5075637;28;19957;-74
2022/10/05 03:28:47;;;;;;;;;;;;;;;12.01;100.00;98540.41;5075472;28;19925;-74
2022/10/05 03:31:18;;;;;;;;;;;;;;;11.94;100.00;98537.16;5078733;28;19924;-74
2022/10/05 03:33:47;;;;;;;;;;;;;;;11.99;100.00;98523.00;5076121;28;19931;-73
2022/10/05 03:36:17;;;;;;;;;;;;;;;11.81;100.00;98514.31;5074381;28;19929;-74
2022/10/05 03:38:47;;;;;;;;;;;;;;;11.57;100.00;98510.34;5075759;28;20318;-74
2022/10/05 03:41:17;;;;;;;;;;;;;;;11.36;100.00;98512.00;5077386;28;20441;-74
2022/10/05 03:43:55;;;;;;;;;;;;;;;11.46;100.00;98510.50;5076454;28;19968;-74
2022/10/05 03:46:28;;;;;;;;;;;;;;;11.47;100.00;98512.13;5075549;28;19936;-74
2022/10/05 03:49:01;;;;;;;;;;;;;;;11.54;100.00;98505.50;5076697;28;19988;-74
2022/10/05 03:51:31;;;;;;;;;;;;;;;11.58;100.00;98519.16;5078452;28;19924;-74
2022/10/05 03:54:00;;;;;;;;;;;;;;;11.57;100.00;98518.38;5074012;28;19921;-74
2022/10/05 03:56:31;;;;;;;;;;;;;;;11.53;100.00;98522.59;5074014;28;19925;-74
2022/10/05 03:59:00;;;;;;;;;;;;;;;11.40;100.00;98523.00;5076957;28;19924;-73
2022/10/05 04:01:36;;;;;;;;;;;;;;;11.01;100.00;98518.88;5078529;28;20509;-73
2022/10/05 04:04:05;;;;;;;;;;;;;;;10.96;100.00;98514.25;5067420;28;19992;-72
2022/10/05 04:06:35;;;;;;;;;;;;;;;11.04;100.00;98515.69;5075474;28;19929;-74
2022/10/05 04:09:03;;;;;;;;;;;;;;;11.16;100.00;98521.72;5083723;28;19925;-73
2022/10/05 04:11:33;;;;;;;;;;;;;;;11.14;100.00;98515.81;5074831;28;19925;-73
2022/10/05 04:14:03;;;;;;;;;;;;;;;11.21;100.00;98513.72;5067153;28;19948;-75
2022/10/05 04:16:34;;;;;;;;;;;;;;;10.99;100.00;98513.75;5074932;28;19954;-74
2022/10/05 04:19:02;;;;;;;;;;;;;;;10.96;100.00;98513.44;5066833;28;19929;-73
2022/10/05 04:21:31;;;;;;;;;;;;;;;10.42;100.00;98515.22;5074859;28;19921;-74
2022/10/05 04:23:59;;;;;;;;;;;;;;;10.53;100.00;98520.44;5078980;28;19924;-74
2022/10/05 04:26:33;;;;;;;;;;;;;;;10.41;100.00;98527.75;5073416;28;19924;-73
2022/10/05 04:29:03;;;;;;;;;;;;;;;10.52;100.00;98532.16;5082447;28;19920;-74
2022/10/05 04:31:36;;;;;;;;;;;;;;;10.18;100.00;98538.66;5075198;28;19967;-74
2022/10/05 04:34:08;;;;;;;;;;;;;;;10.45;100.00;98534.22;5067300;28;19925;-74
2022/10/05 04:36:40;;;;;;;;;;;;;;;10.71;100.00;98536.16;5074114;28;19935;-73
2022/10/05 04:39:13;;;;;;;;;;;;;;;10.94;100.00;98535.09;5078792;28;19956;-74
2022/10/05 04:41:44;;;;;;;;;;;;;;;11.12;100.00;98536.63;5093397;28;19935;-74
2022/10/05 04:44:22;;;;;;;;;;;;;;;11.13;100.00;98536.38;5074583;28;20023;-74
2022/10/05 04:47:00;;;;;;;;;;;;;;;11.09;100.00;98537.94;5076169;28;19925;-74
2022/10/05 04:49:36;;;;;;;;;;;;;;;11.17;100.00;98539.38;5076696;28;19925;-74
2022/10/05 04:52:07;;;;;;;;;;;;;;;11.27;100.00;98534.09;5067144;28;19971;-74
2022/10/05 04:54:39;;;;;;;;;;;;;;;10.88;100.00;98530.75;5075156;28;20008;-74
2022/10/05 04:57:07;;;;;;;;;;;;;;;10.84;100.00;98534.97;5082517;28;19928;-73
2022/10/05 04:59:57;;;;;;;;;;;;;;;11.07;100.00;98531.22;5073687;28;19956;-73
2022/10/05 05:02:30;;;;;;;;;;;;;;;10.97;100.00;98523.09;5061465;28;19924;-74
2022/10/05 05:05:15;;;;;;;;;;;;;;;10.84;100.00;98518.94;5073950;28;19931;-74
2022/10/05 05:07:44;;;;;;;;;;;;;;;10.31;100.00;98519.59;5074314;28;19928;-74
2022/10/05 05:10:35;;;;;;;;;;;;;;;10.25;100.00;98520.56;5078271;28;19928;-74
2022/10/05 05:13:06;;;;;;;;;;;;;;;10.45;100.00;98514.72;5071584;28;19961;-74
2022/10/05 05:15:45;;;;;;;;;;;;;;;10.64;100.00;98516.84;5079648;28;19924;-74
2022/10/05 05:18:27;;;;;;;;;;;;;;;10.86;100.00;98521.38;5072049;28;19931;-74
2022/10/05 05:20:57;;;;;;;;;;;;;;;10.93;100.00;98517.44;5080479;28;19932;-74
2022/10/05 05:23:27;;;;;;;;;;;;;;;10.90;100.00;98522.47;5083347;28;19920;-74
2022/10/05 05:26:00;;;;;;;;;;;;;;;10.32;100.00;98523.88;5079331;28;19955;-74
2022/10/05 05:28:30;;;;;;;;;;;;;;;9.68;100.00;98518.09;5078389;28;19924;-73
2022/10/05 05:31:01;;;;;;;;;;;;;;;9.66;100.00;98525.53;5080373;28;20643;-74
2022/10/05 05:33:32;;;;;;;;;;;;;;;9.94;100.00;98524.63;5081731;28;19971;-72
2022/10/05 05:36:18;;;;;;;;;;;;;;;10.06;100.00;98529.88;5069550;28;19935;-75
2022/10/05 05:38:50;;;;;;;;;;;;;;;10.04;100.00;98521.31;5081256;28;19957;-74
2022/10/05 05:41:23;;;;;;;;;;;;;;;9.86;100.00;98522.38;5082182;28;19925;-74
2022/10/05 05:43:59;;;;;;;;;;;;;;;9.70;100.00;98515.19;5078359;28;19924;-74
2022/10/05 05:46:27;;;;;;;;;;;;;;;9.63;100.00;98517.19;5078923;28;19975;-74
2022/10/05 05:48:56;;;;;;;;;;;;;;;9.64;100.00;98508.97;5080076;28;19933;-73
2022/10/05 05:51:27;;;;;;;;;;;;;;;9.57;100.00;98505.63;5082160;28;19921;-73
2022/10/05 05:53:56;;;;;;;;;;;;;;;9.21;100.00;98516.75;5098227;28;20467;-74
2022/10/05 05:56:27;;;;;;;;;;;;;;;8.89;100.00;98520.91;5078093;28;19939;-74
2022/10/05 05:58:55;;;;;;;;;;;;;;;8.63;100.00;98523.06;5079610;28;19963;-74
2022/10/05 06:01:24;;;;;;;;;;;;;;;8.37;100.00;98523.59;5081263;28;19928;-74
2022/10/05 06:03:53;;;;;;;;;;;;;;;8.65;100.00;98534.31;5078603;28;19936;-74
2022/10/05 06:06:24;;;;;;;;;;;;;;;8.67;100.00;98539.41;5077318;28;19936;-74
2022/10/05 06:08:52;;;;;;;;;;;;;;;8.92;100.00;98547.09;5078044;28;19924;-74
2022/10/05 06:11:24;;;;;;;;;;;;;;;8.59;100.00;98556.56;5096919;28;20007;-74
2022/10/05 06:13:50;;;;;;;;;;;;;;;8.60;100.00;98555.50;5078927;28;19924;-74
2022/10/05 06:16:21;;;;;;;;;;;;;;;8.84;100.00;98566.09;5076723;28;19921;-73
2022/10/05 06:18:50;;;;;;;;;;;;;;;9.17;100.00;98556.38;5078552;28;19982;-73
2022/10/05 06:21:20;;;;;;;;;;;;;;;9.60;100.00;98566.50;5096365;28;19924;-74
2022/10/05 06:23:52;;;;;;;;;;;;;;;9.84;100.00;98558.34;5077849;28;19935;-74
2022/10/05 06:26:28;;;;;;;;;;;;;;;10.04;100.00;98551.47;5076968;28;19924;-73
2022/10/05 06:28:58;;;;;;;;;;;;;;;10.23;100.00;98557.41;5079615;28;19952;-74
2022/10/05 06:31:34;;;;;;;;;;;;;;;10.12;100.00;98559.06;5080585;28;20000;-74
2022/10/05 06:34:04;;;;;;;;;;;;;;;9.81;100.00;98562.28;5069069;28;19964;-74
2022/10/05 06:36:36;;;;;;;;;;;;;;;9.69;100.00;98570.38;5076319;28;19932;-75
2022/10/05 06:39:13;;;;;;;;;;;;;;;9.72;100.00;98575.22;5068467;28;19929;-74
2022/10/05 06:41:46;;;;;;;;;;;;;;;9.89;100.00;98569.09;5077495;28;19925;-74
2022/10/05 06:44:16;;;;;;;;;;;;;;;9.81;100.00;98577.53;5079384;28;19925;-74
2022/10/05 06:46:48;;;;;;;;;;;;;;;9.97;100.00;98568.69;5077456;28;20449;-74
2022/10/05 06:49:18;;;;;;;;;;;;;;;9.94;100.00;98567.31;5076428;28;19925;-73
2022/10/05 06:51:50;;;;;;;;;;;;;;;10.02;100.00;98580.28;5077775;28;19932;-74
2022/10/05 06:54:27;;;;;;;;;;;;;;;10.09;100.00;98575.56;5075724;28;19925;-74
2022/10/05 06:56:56;;;;;;;;;;;;;;;10.15;100.00;98568.50;5077518;28;19929;-74
2022/10/05 06:59:26;;;;;;;;;;;;;;;10.10;100.00;98579.03;5079750;28;19920;-74
2022/10/05 07:01:58;;;;;;;;;;;;;;;10.24;100.00;98578.50;5076664;28;19971;-74
2022/10/05 07:04:34;;;;;;;;;;;;;;;10.23;100.00;98581.41;5075830;28;19924;-74
2022/10/05 07:07:03;;;;;;;;;;;;;;;10.18;100.00;98582.13;5068043;28;19931;-73
2022/10/05 07:09:37;;;;;;;;;;;;;;;10.18;100.00;98582.13;5075883;28;20016;-74
2022/10/05 07:12:11;;;;;;;;;;;;;;;10.13;100.00;98586.56;5067112;28;19988;-74
2022/10/05 07:14:51;;;;;;;;;;;;;;;9.83;100.00;98592.22;5091594;28;19924;-75
2022/10/05 07:17:25;;;;;;;;;;;;;;;9.73;100.00;98600.84;5095266;28;19925;-74
2022/10/05 07:19:57;;;;;;;;;;;;;;;9.93;100.00;98603.06;5076410;28;19925;-73
2022/10/05 07:22:31;;;;;;;;;;;;;;;10.00;100.00;98608.22;5075206;28;19968;-74
2022/10/05 07:25:02;;;;;;;;;;;;;;;10.03;100.00;98603.22;5078664;28;19928;-74
2022/10/05 07:27:32;;;;;;;;;;;;;;;9.96;100.00;98615.13;5078933;28;19975;-73
2022/10/05 07:30:01;;;;;;;;;;;;;;;10.00;100.00;98608.22;5066284;28;19925;-74
2022/10/05 07:32:32;;;;;;;;;;;;;;;9.97;100.00;98608.72;5075547;28;19927;-74
2022/10/05 07:35:02;;;;;;;;;;;;;;;10.05;100.00;98619.00;5078284;28;19948;-74
2022/10/05 07:40:23;;;;;;;;;;;;;;;10.12;100.00;98619.66;5084933;28;19924;-73
2022/10/05 07:42:56;;;;;;;;;;;;;;;10.20;100.00;98632.63;5075801;28;19941;-74
2022/10/05 07:45:26;;;;;;;;;;;;;;;10.23;100.00;98626.81;5093896;28;19979;-73
2022/10/05 07:47:54;;;;;;;;;;;;;;;10.32;100.00;98622.66;5075765;28;20170;-73
2022/10/05 07:50:23;;;;;;;;;;;;;;;10.44;100.00;98619.91;5075268;28;19925;-73
2022/10/05 07:52:54;;;;;;;;;;;;;;;10.44;100.00;98623.38;5075700;28;19931;-73
2022/10/05 07:55:25;;;;;;;;;;;;;;;10.58;100.00;98615.84;5094051;28;19959;-73
2022/10/05 07:57:55;;;;;;;;;;;;;;;10.57;100.00;98624.91;5075909;28;19931;-73
2022/10/05 08:00:23;;;;;;;;;;;;;;;10.66;100.00;98620.75;5076009;28;19952;-74
2022/10/05 08:02:52;;;;;;;;;;;;;;;10.67;100.00;98625.88;5078026;28;19975;-74
2022/10/05 08:05:22;;;;;;;;;;;;;;;10.66;100.00;98620.75;5079443;28;19924;-74
2022/10/05 08:07:51;;;;;;;;;;;;;;;10.71;100.00;98621.63;5076891;28;19925;-72
2022/10/05 08:10:23;;;;;;;;;;;;;;;10.74;100.00;98623.81;5075236;28;19921;-72
2022/10/05 08:12:58;;;;;;;;;;;;;;;10.75;100.00;98625.44;5076644;28;19944;-73
2022/10/05 08:15:27;;;;;;;;;;;;;;;10.80;100.00;98622.00;5078210;28;19924;-74
2022/10/05 08:17:55;;;;;;;;;;;;;;;10.78;100.00;98621.47;5075004;28;19939;-73
2022/10/05 08:20:28;;;;;;;;;;;;;;;10.86;100.00;98609.56;5074561;28;19963;-73
2022/10/05 08:22:58;;;;;;;;;;;;;;;10.95;100.00;98618.75;5075897;28;19974;-73
2022/10/05 08:25:26;;;;;;;;;;;;;;;10.99;100.00;98609.16;5076613;28;19928;-73
2022/10/05 08:27:55;;;;;;;;;;;;;;;11.07;100.00;98609.56;5090552;28;19979;-73
2022/10/05 08:30:23;;;;;;;;;;;;;;;11.07;100.00;98616.78;5074243;28;19959;-73
2022/10/05 08:32:52;;;;;;;;;;;;;;;11.18;100.00;98610.47;5076123;28;20211;-73
2022/10/05 08:35:25;;;;;;;;;;;;;;;11.31;100.00;98615.44;5077511;28;19999;-73
2022/10/05 08:37:52;;;;;;;;;;;;;;;11.42;100.00;98617.16;5073622;28;19925;-74
2022/10/05 08:40:42;;;;;;;;;;;;;;;11.49;100.00;98616.97;5089737;28;19931;-73
2022/10/05 08:43:14;;;;;;;;;;;;;;;11.55;100.00;98607.94;5067163;28;19996;-74
2022/10/05 08:45:50;;;;;;;;;;;;;;;11.63;100.00;98613.66;5074907;28;20258;-74
2022/10/05 08:48:36;;;;;;;;;;;;;;;11.70;100.00;98603.59;5077384;28;20651;-72
2022/10/05 08:51:10;;;;;;;;;;;;;;;11.85;100.00;98606.41;5066030;28;19960;-73
2022/10/05 08:53:47;;;;;;;;;;;;;;;11.87;100.00;98603.47;5077479;28;19924;-71
2022/10/05 08:56:25;;;;;;;;;;;;;;;11.93;100.00;98605.13;5072134;28;19925;-71
2022/10/05 08:59:01;;;;;;;;;;;;;;;11.98;100.00;98609.72;5076123;28;19921;-74
2022/10/05 09:01:35;;;;;;;;;;;;;;;12.01;100.00;98604.66;5077184;28;19979;-74
2022/10/05 09:04:16;;;;;;;;;;;;;;;12.12;100.00;98600.22;5081223;28;19925;-73
2022/10/05 09:06:57;;;;;;;;;;;;;;;12.22;100.00;98603.78;5072041;28;19925;-73
2022/10/05 09:09:35;;;;;;;;;;;;;;;12.20;100.00;98610.44;5077179;28;19920;-74
2022/10/05 09:12:15;;;;;;;;;;;;;;;12.24;100.00;98604.31;5065545;28;19989;-74
2022/10/05 09:14:48;;;;;;;;;;;;;;;12.35;100.00;98605.19;5075403;28;20439;-74
2022/10/05 09:17:31;;;;;;;;;;;;;;;12.39;100.00;98604.44;5078005;28;19939;-73
2022/10/05 09:20:14;;;;;;;;;;;;;;;12.49;100.00;98611.75;5073614;28;19924;-73
2022/10/05 09:22:56;;;;;;;;;;;;;;;12.66;100.00;98607.00;5075782;28;19925;-73
2022/10/05 09:25:23;;;;;;;;;;;;;;;12.72;100.00;98610.53;5090758;28;19925;-73
2022/10/05 09:27:52;;;;;;;;;;;;;;;12.81;100.00;98619.72;5075892;28;19988;-73
2022/10/05 09:30:25;;;;;;;;;;;;;;;12.81;100.00;98609.78;5074961;28;19932;-73
2022/10/05 09:33:12;;;;;;;;;;;;;;;12.89;100.00;98605.81;5076465;28;19929;-74
2022/10/05 09:36:09;;;;;;;;;;;;;;;12.86;100.00;98606.31;5074934;28;19925;-73
2022/10/05 09:38:46;;;;;;;;;;;;;;;13.08;100.00;98607.00;5074020;28;19925;-73
2022/10/05 09:41:30;;;;;;;;;;;;;;;13.17;100.00;98607.28;5077255;28;19964;-73
2022/10/05 09:44:26;;;;;;;;;;;;;;;13.29;100.00;98606.00;5073716;28;19932;-73
2022/10/05 09:47:04;;;;;;;;;;;;;;;13.38;100.00;98607.09;5075956;28;19974;-74
2022/10/05 09:49:50;;;;;;;;;;;;;;;13.41;100.00;98608.44;5075628;28;19924;-74
2022/10/05 09:52:25;;;;;;;;;;;;;;;13.36;100.00;98593.16;5067642;28;19991;-73
2022/10/05 09:55:13;;;;;;;;;;;;;;;13.49;100.00;98599.91;5074907;28;19931;-75
2022/10/05 09:57:49;;;;;;;;;;;;;;;13.60;100.00;98596.16;5087181;28;19955;-74
2022/10/05 10:00:20;;;;;;;;;;;;;;;13.71;100.00;98589.72;5076014;28;19992;-74
2022/10/05 10:03:03;;;;;;;;;;;;;;;13.82;100.00;98579.81;5077562;28;20031;-74
2022/10/05 10:05:39;;;;;;;;;;;;;;;13.82;100.00;98588.69;5081135;28;19925;-74
2022/10/05 10:08:16;;;;;;;;;;;;;;;13.83;100.00;98589.50;5068508;28;19924;-74
2022/10/05 10:10:51;;;;;;;;;;;;;;;13.81;100.00;98576.31;5077895;28;19925;-74
2022/10/05 10:13:29;;;;;;;;;;;;;;;13.84;100.00;98580.34;5080449;28;19934;-74
2022/10/05 10:16:08;;;;;;;;;;;;;;;13.90;100.00;98574.72;5077414;28;19935;-74
2022/10/05 10:18:40;;;;;;;;;;;;;;;14.09;100.00;98583.03;5076940;28;20113;-74
2022/10/05 10:21:22;;;;;;;;;;;;;;;14.21;100.00;98585.44;5080812;28;19975;-74
2022/10/05 10:24:13;;;;;;;;;;;;;;;14.43;100.00;98568.00;5078771;28;19924;-74
2022/10/05 10:26:54;;;;;;;;;;;;;;;14.53;100.00;98553.72;5078108;28;20402;-74
2022/10/05 10:29:41;;;;;;;;;;;;;;;14.54;100.00;98558.03;5080563;28;19928;-74
2022/10/05 10:32:15;;;;;;;;;;;;;;;14.38;100.00;98556.44;5069092;28;19925;-74
2022/10/05 10:35:08;;;;;;;;;;;;;;;14.61;100.00;98555.84;5077133;28;19971;-74
2022/10/05 10:37:57;;;;;;;;;;;;;;;14.22;100.00;98555.63;5079487;28;19974;-73
2022/10/05 10:40:36;;;;;;;;;;;;;;;14.90;100.00;98551.47;5054905;28;19925;-74
2022/10/05 10:43:21;;;;;;;;;;;;;;;15.14;100.00;98536.28;5068160;28;19924;-74
2022/10/05 10:45:54;;;;;;;;;;;;;;;15.10;100.00;98537.13;5077989;28;20184;-74
2022/10/05 10:48:39;;;;;;;;;;;;;;;15.00;100.00;98537.97;5077750;28;19924;-74
2022/10/05 10:51:14;;;;;;;;;;;;;;;15.24;100.00;98534.63;5067841;28;19928;-74
2022/10/05 10:54:04;;;;;;;;;;;;;;;15.40;100.00;98523.50;5099033;28;19925;-74
2022/10/05 10:56:45;;;;;;;;;;;;;;;15.47;100.00;98521.31;5091551;28;19936;-74
2022/10/05 10:59:40;;;;;;;;;;;;;;;15.62;100.00;98517.72;5067793;28;20311;-73
2022/10/05 11:02:23;;;;;;;;;;;;;;;15.77;100.00;98522.19;5061502;28;19928;-73
2022/10/05 11:04:58;;;;;;;;;;;;;;;15.83;100.00;98516.47;5075432;28;19935;-74
2022/10/05 11:07:35;;;;;;;;;;;;;;;15.86;100.00;98505.16;5075155;28;19964;-74
2022/10/05 11:10:22;;;;;;;;;;;;;;;15.90;100.00;98506.19;5066052;28;19925;-74
2022/10/05 11:13:20;;;;;;;;;;;;;;;16.10;100.00;98508.69;5058337;28;19924;-75
2022/10/05 11:16:00;;;;;;;;;;;;;;;15.98;100.00;98505.56;5017736;28;19939;-75
2022/10/05 11:18:34;;;;;;;;;;;;;;;15.93;100.00;98499.44;5069052;28;19925;-75
2022/10/05 11:21:17;;;;;;;;;;;;;;;15.75;100.00;98506.31;5066836;28;19925;-75
2022/10/05 11:24:00;;;;;;;;;;;;;;;16.08;100.00;98502.78;5078447;28;19959;-75
2022/10/05 11:26:33;;;;;;;;;;;;;;;16.33;100.00;98501.75;5074929;28;19925;-74
2022/10/05 11:29:24;;;;;;;;;;;;;;;16.37;100.00;98504.66;5076705;28;20357;-74
2022/10/05 11:32:04;;;;;;;;;;;;;;;16.52;100.00;98493.72;5075056;28;20411;-75
2022/10/05 11:34:43;;;;;;;;;;;;;;;16.75;100.00;98490.22;5074977;28;19925;-75
2022/10/05 11:37:19;;;;;;;;;;;;;;;16.60;100.00;98487.72;5067829;28;19964;-75
2022/10/05 11:39:57;;;;;;;;;;;;;;;16.19;100.00;98484.63;5076638;28;20342;-75
2022/10/05 11:42:38;;;;;;;;;;;;;;;16.64;100.00;98489.56;5078368;28;19955;-75
2022/10/05 11:45:13;;;;;;;;;;;;;;;16.60;100.00;98488.53;5045132;28;19956;-75
2022/10/05 11:47:44;;;;;;;;;;;;;;;16.78;100.00;98484.25;5072821;28;20000;-75
2022/10/05 11:50:18;;;;;;;;;;;;;;;16.93;100.00;98486.75;5076788;28;19929;-75
2022/10/05 11:52:47;;;;;;;;;;;;;;;17.09;100.00;98476.56;5073617;28;19932;-75
2022/10/05 11:55:18;;;;;;;;;;;;;;;17.13;100.00;98475.69;5078026;28;19925;-75
2022/10/05 11:57:49;;;;;;;;;;;;;;;17.12;100.00;98462.47;5076997;28;19924;-75
2022/10/05 12:00:17;;;;;;;;;;;;;;;17.00;100.00;98465.63;5074503;28;19924;-75
2022/10/05 12:02:59;;;;;;;;;;;;;;;17.21;100.00;98463.44;5074273;28;19960;-75
2022/10/05 12:05:32;;;;;;;;;;;;;;;17.02;100.00;98463.41;5076699;28;19924;-75
2022/10/05 12:08:06;;;;;;;;;;;;;;;17.28;100.00;98461.97;5074255;28;19925;-75
2022/10/05 12:10:36;;;;;;;;;;;;;;;17.32;100.00;98461.38;5074392;28;19952;-75
2022/10/05 12:13:18;;;;;;;;;;;;;;;17.27;100.00;98468.47;5065092;28;20003;-75
2022/10/05 12:15:47;;;;;;;;;;;;;;;17.48;100.00;98462.78;5075401;28;19925;-74
2022/10/05 12:18:18;;;;;;;;;;;;;;;17.34;100.00;98457.31;5078796;28;19928;-74
2022/10/05 12:20:49;;;;;;;;;;;;;;;17.46;100.00;98457.66;5077522;28;19935;-74
2022/10/05 12:23:19;;;;;;;;;;;;;;;17.39;100.00;98457.25;5075251;28;19960;-75
2022/10/05 12:25:48;;;;;;;;;;;;;;;17.34;100.00;98451.91;5077224;28;19960;-74
2022/10/05 12:28:17;;;;;;;;;;;;;;;17.36;100.00;98446.22;5074025;28;20415;-74
2022/10/05 12:30:54;;;;;;;;;;;;;;;17.45;100.00;98445.25;5075437;28;20066;-74
2022/10/05 12:33:23;;;;;;;;;;;;;;;17.44;100.00;98438.25;5093291;28;19935;-74
2022/10/05 12:35:53;;;;;;;;;;;;;;;17.28;100.00;98440.38;5075142;28;19932;-75
2022/10/05 12:38:23;;;;;;;;;;;;;;;17.33;100.00;98442.19;5073928;28;19925;-75
2022/10/05 12:40:55;;;;;;;;;;;;;;;17.39;100.00;98445.63;5074369;28;19925;-74
2022/10/05 12:43:26;;;;;;;;;;;;;;;17.37;100.00;98448.59;5093097;28;19991;-74
2022/10/05 12:46:07;;;;;;;;;;;;;;;17.50;100.00;98436.25;5073471;28;19931;-74
2022/10/05 12:48:41;;;;;;;;;;;;;;;17.58;100.00;98424.81;5072649;28;19936;-74
2022/10/05 12:51:13;;;;;;;;;;;;;;;17.54;100.00;98432.69;5067218;28;19929;-74
2022/10/05 12:53:47;;;;;;;;;;;;;;;17.54;100.00;98435.38;5078077;28;19991;-74
2022/10/05 12:56:20;;;;;;;;;;;;;;;17.66;100.00;98432.25;5072610;28;19979;-74
2022/10/05 12:58:52;;;;;;;;;;;;;;;17.54;100.00;98437.28;5074864;28;19951;-74
2022/10/05 13:01:26;;;;;;;;;;;;;;;17.62;100.00;98423.13;5093480;28;19928;-74
2022/10/05 13:03:56;;;;;;;;;;;;;;;17.80;100.00;98433.88;5075298;28;19956;-75
2022/10/05 13:06:32;;;;;;;;;;;;;;;17.86;100.00;98433.81;5073724;28;19936;-74
2022/10/05 13:09:02;;;;;;;;;;;;;;;17.84;100.00;98426.00;5076849;28;19924;-74
2022/10/05 13:11:32;;;;;;;;;;;;;;;17.87;100.00;98425.41;5075818;28;19989;-74
2022/10/05 13:14:06;;;;;;;;;;;;;;;17.98;100.00;98436.84;5073101;28;19976;-74